sensor_id;sensor_type;location;lat;lon;timestamp;temperature;humidity
26278;DHT22;14000;52.056;8.510;2022-08-21T00:00:54;15.60;99.90
26278;DHT22;14000;52.056;8.510;2022-08-21T00:03:19;15.60;99.90
26278;DHT22;14000;52.056;8.510;2022-08-21T00:05:48;15.60;99.90
26278;DHT22;14000;52.056;8.510;2022-08-21T00:08:16;15.50;99.90
26278;DHT22;14000;52.056;8.510;2022-08-21T00:10:43;15.50;99.90
26278;DHT22;14000;52.056;8.510;2022-08-21T00:13:10;15.40;99.90
26278;DHT22;14000;52.056;8.510;2022-08-21T00:15:37;15.50;99.90
26278;DHT22;14000;52.056;8.510;2022-08-21T00:18:05;15.40;99.90
26278;DHT22;14000;52.056;8.510;2022-08-21T00:20:31;15.40;99.90
26278;DHT22;14000;52.056;8.510;2022-08-21T00:22:57;15.40;99.90
26278;DHT22;14000;52.056;8.510;2022-08-21T00:25:24;15.40;99.90
26278;DHT22;14000;52.056;8.510;2022-08-21T00:27:50;15.30;99.90
26278;DHT22;14000;52.056;8.510;2022-08-21T00:30:17;15.30;99.90
26278;DHT22;14000;52.056;8.510;2022-08-21T00:32:44;15.30;99.90
26278;DHT22;14000;52.056;8.510;2022-08-21T00:35:14;15.30;99.90
26278;DHT22;14000;52.056;8.510;2022-08-21T00:37:40;15.10;99.90
26278;DHT22;14000;52.056;8.510;2022-08-21T00:40:09;15.20;99.90
26278;DHT22;14000;52.056;8.510;2022-08-21T00:42:36;15.20;99.90
26278;DHT22;14000;52.056;8.510;2022-08-21T00:45:03;15.10;99.90
26278;DHT22;14000;52.056;8.510;2022-08-21T00:47:29;15.10;99.90
26278;DHT22;14000;52.056;8.510;2022-08-21T00:49:54;15.10;99.90
26278;DHT22;14000;52.056;8.510;2022-08-21T00:52:27;15.20;99.90
26278;DHT22;14000;52.056;8.510;2022-08-21T00:54:54;15.20;99.90
26278;DHT22;14000;52.056;8.510;2022-08-21T00:57:25;15.10;99.90
26278;DHT22;14000;52.056;8.510;2022-08-21T00:59:52;15.10;99.90
26278;DHT22;14000;52.056;8.510;2022-08-21T01:02:19;15.10;99.90
26278;DHT22;14000;52.056;8.510;2022-08-21T01:04:45;15.10;99.90
26278;DHT22;14000;52.056;8.510;2022-08-21T01:07:12;15.10;99.90
26278;DHT22;14000;52.056;8.510;2022-08-21T01:09:38;15.10;99.90
26278;DHT22;14000;52.056;8.510;2022-08-21T01:12:05;15.10;99.90
26278;DHT22;14000;52.056;8.510;2022-08-21T01:14:31;15.10;99.90
26278;DHT22;14000;52.056;8.510;2022-08-21T01:16:59;15.00;99.90
26278;DHT22;14000;52.056;8.510;2022-08-21T01:19:26;15.00;99.90
26278;DHT22;14000;52.056;8.510;2022-08-21T01:21:51;15.00;99.90
26278;DHT22;14000;52.056;8.510;2022-08-21T01:24:17;15.00;99.90
26278;DHT22;14000;52.056;8.510;2022-08-21T01:26:44;15.00;99.90
26278;DHT22;14000;52.056;8.510;2022-08-21T01:29:31;15.00;99.90
26278;DHT22;14000;52.056;8.510;2022-08-21T01:31:59;15.00;99.90
26278;DHT22;14000;52.056;8.510;2022-08-21T01:34:25;15.00;99.90
26278;DHT22;14000;52.056;8.510;2022-08-21T01:36:50;15.00;99.90
26278;DHT22;14000;52.056;8.510;2022-08-21T01:39:16;15.00;99.90
26278;DHT22;14000;52.056;8.510;2022-08-21T01:41:42;15.00;99.90
26278;DHT22;14000;52.056;8.510;2022-08-21T01:44:08;14.90;99.90
26278;DHT22;14000;52.056;8.510;2022-08-21T01:46:34;14.90;99.90
26278;DHT22;14000;52.056;8.510;2022-08-21T01:49:00;14.90;99.90
26278;DHT22;14000;52.056;8.510;2022-08-21T01:51:26;14.90;99.90
26278;DHT22;14000;52.056;8.510;2022-08-21T01:53:51;14.90;99.90
26278;DHT22;14000;52.056;8.510;2022-08-21T01:56:18;14.90;99.90
26278;DHT22;14000;52.056;8.510;2022-08-21T01:58:45;14.90;99.90
26278;DHT22;14000;52.056;8.510;2022-08-21T02:01:11;14.90;99.90
26278;DHT22;14000;52.056;8.510;2022-08-21T02:03:38;14.80;99.90
26278;DHT22;14000;52.056;8.510;2022-08-21T02:06:05;14.90;99.90
26278;DHT22;14000;52.056;8.510;2022-08-21T02:08:32;14.90;99.90
26278;DHT22;14000;52.056;8.510;2022-08-21T02:10:58;14.90;99.90
26278;DHT22;14000;52.056;8.510;2022-08-21T02:13:24;14.90;99.90
26278;DHT22;14000;52.056;8.510;2022-08-21T02:15:50;14.90;99.90
26278;DHT22;14000;52.056;8.510;2022-08-21T02:18:16;14.90;99.90
26278;DHT22;14000;52.056;8.510;2022-08-21T02:20:46;14.90;99.90
26278;DHT22;14000;52.056;8.510;2022-08-21T02:23:30;15.00;99.90
26278;DHT22;14000;52.056;8.510;2022-08-21T02:26:07;15.00;99.90
26278;DHT22;14000;52.056;8.510;2022-08-21T02:28:34;15.00;99.90
26278;DHT22;14000;52.056;8.510;2022-08-21T02:31:00;14.90;99.90
26278;DHT22;14000;52.056;8.510;2022-08-21T02:33:27;14.90;99.90
26278;DHT22;14000;52.056;8.510;2022-08-21T02:35:53;14.90;99.90
26278;DHT22;14000;52.056;8.510;2022-08-21T02:38:23;14.90;99.90
26278;DHT22;14000;52.056;8.510;2022-08-21T02:40:50;14.90;99.90
26278;DHT22;14000;52.056;8.510;2022-08-21T02:43:19;14.80;99.90
26278;DHT22;14000;52.056;8.510;2022-08-21T02:45:47;14.80;99.90
26278;DHT22;14000;52.056;8.510;2022-08-21T02:48:17;14.80;99.90
26278;DHT22;14000;52.056;8.510;2022-08-21T02:50:46;14.80;99.90
26278;DHT22;14000;52.056;8.510;2022-08-21T02:53:14;14.70;99.90
26278;DHT22;14000;52.056;8.510;2022-08-21T02:55:47;14.70;99.90
26278;DHT22;14000;52.056;8.510;2022-08-21T02:58:14;14.60;99.90
26278;DHT22;14000;52.056;8.510;2022-08-21T03:00:41;14.70;99.90
26278;DHT22;14000;52.056;8.510;2022-08-21T03:03:07;14.60;99.90
26278;DHT22;14000;52.056;8.510;2022-08-21T03:05:34;14.60;99.90
26278;DHT22;14000;52.056;8.510;2022-08-21T03:08:01;14.70;99.90
26278;DHT22;14000;52.056;8.510;2022-08-21T03:10:28;14.60;99.90
26278;DHT22;14000;52.056;8.510;2022-08-21T03:12:54;14.60;99.90
26278;DHT22;14000;52.056;8.510;2022-08-21T03:15:22;14.70;99.90
26278;DHT22;14000;52.056;8.510;2022-08-21T03:17:52;14.60;99.90
26278;DHT22;14000;52.056;8.510;2022-08-21T03:20:20;14.60;99.90
26278;DHT22;14000;52.056;8.510;2022-08-21T03:22:48;14.60;99.90
26278;DHT22;14000;52.056;8.510;2022-08-21T03:25:13;14.60;99.90
26278;DHT22;14000;52.056;8.510;2022-08-21T03:27:39;14.60;99.90
26278;DHT22;14000;52.056;8.510;2022-08-21T03:30:06;14.60;99.90
26278;DHT22;14000;52.056;8.510;2022-08-21T03:32:32;14.60;99.90
26278;DHT22;14000;52.056;8.510;2022-08-21T03:34:58;14.60;99.90
26278;DHT22;14000;52.056;8.510;2022-08-21T03:37:26;14.60;99.90
26278;DHT22;14000;52.056;8.510;2022-08-21T03:39:51;14.60;99.90
26278;DHT22;14000;52.056;8.510;2022-08-21T03:42:17;14.60;99.90
26278;DHT22;14000;52.056;8.510;2022-08-21T03:44:42;14.60;99.90
26278;DHT22;14000;52.056;8.510;2022-08-21T03:47:08;14.60;99.90
26278;DHT22;14000;52.056;8.510;2022-08-21T03:49:35;14.60;99.90
26278;DHT22;14000;52.056;8.510;2022-08-21T03:52:01;14.60;99.90
26278;DHT22;14000;52.056;8.510;2022-08-21T03:54:28;14.60;99.90
26278;DHT22;14000;52.056;8.510;2022-08-21T03:56:53;14.60;99.90
26278;DHT22;14000;52.056;8.510;2022-08-21T03:59:19;14.60;99.90
26278;DHT22;14000;52.056;8.510;2022-08-21T04:04:18;14.60;99.90
26278;DHT22;14000;52.056;8.510;2022-08-21T04:06:44;14.60;99.90
26278;DHT22;14000;52.056;8.510;2022-08-21T04:09:09;14.90;99.90
26278;DHT22;14000;52.056;8.510;2022-08-21T04:11:35;14.60;99.90
26278;DHT22;14000;52.056;8.510;2022-08-21T04:14:02;14.60;99.90
26278;DHT22;14000;52.056;8.510;2022-08-21T04:16:28;14.60;99.90
26278;DHT22;14000;52.056;8.510;2022-08-21T04:18:53;14.60;99.90
26278;DHT22;14000;52.056;8.510;2022-08-21T04:21:19;14.60;99.90
26278;DHT22;14000;52.056;8.510;2022-08-21T04:23:45;14.60;99.90
26278;DHT22;14000;52.056;8.510;2022-08-21T04:26:11;14.60;99.90
26278;DHT22;14000;52.056;8.510;2022-08-21T04:28:36;14.60;99.90
26278;DHT22;14000;52.056;8.510;2022-08-21T04:31:02;14.50;99.90
26278;DHT22;14000;52.056;8.510;2022-08-21T04:33:28;14.50;99.90
26278;DHT22;14000;52.056;8.510;2022-08-21T04:35:54;14.50;99.90
26278;DHT22;14000;52.056;8.510;2022-08-21T04:38:20;14.50;99.90
26278;DHT22;14000;52.056;8.510;2022-08-21T04:40:47;14.40;99.90
26278;DHT22;14000;52.056;8.510;2022-08-21T04:43:14;14.40;99.90
26278;DHT22;14000;52.056;8.510;2022-08-21T04:45:42;14.40;99.90
26278;DHT22;14000;52.056;8.510;2022-08-21T04:48:10;14.40;99.90
26278;DHT22;14000;52.056;8.510;2022-08-21T04:56:26;14.40;99.90
26278;DHT22;14000;52.056;8.510;2022-08-21T04:58:55;14.40;99.90
26278;DHT22;14000;52.056;8.510;2022-08-21T05:01:23;14.40;99.90
26278;DHT22;14000;52.056;8.510;2022-08-21T05:03:54;14.40;99.90
26278;DHT22;14000;52.056;8.510;2022-08-21T05:06:21;15.10;99.90
26278;DHT22;14000;52.056;8.510;2022-08-21T05:08:49;14.40;99.90
26278;DHT22;14000;52.056;8.510;2022-08-21T05:11:15;14.40;99.90
26278;DHT22;14000;52.056;8.510;2022-08-21T05:13:41;14.40;99.90
26278;DHT22;14000;52.056;8.510;2022-08-21T05:16:07;14.40;99.90
26278;DHT22;14000;52.056;8.510;2022-08-21T05:18:33;14.40;99.90
26278;DHT22;14000;52.056;8.510;2022-08-21T05:20:58;14.40;99.90
26278;DHT22;14000;52.056;8.510;2022-08-21T05:23:24;14.40;99.90
26278;DHT22;14000;52.056;8.510;2022-08-21T05:25:51;14.50;99.90
26278;DHT22;14000;52.056;8.510;2022-08-21T05:28:17;14.50;99.90
26278;DHT22;14000;52.056;8.510;2022-08-21T05:30:44;14.50;99.90
26278;DHT22;14000;52.056;8.510;2022-08-21T05:33:10;14.60;99.90
26278;DHT22;14000;52.056;8.510;2022-08-21T05:35:37;14.70;99.90
26278;DHT22;14000;52.056;8.510;2022-08-21T05:38:03;14.70;99.90
26278;DHT22;14000;52.056;8.510;2022-08-21T05:40:29;14.80;99.90
26278;DHT22;14000;52.056;8.510;2022-08-21T05:42:55;14.80;99.90
26278;DHT22;14000;52.056;8.510;2022-08-21T05:45:23;14.90;99.90
26278;DHT22;14000;52.056;8.510;2022-08-21T05:47:49;15.00;99.90
26278;DHT22;14000;52.056;8.510;2022-08-21T05:50:15;15.10;99.90
26278;DHT22;14000;52.056;8.510;2022-08-21T05:52:40;15.10;99.90
26278;DHT22;14000;52.056;8.510;2022-08-21T05:55:06;15.20;99.90
26278;DHT22;14000;52.056;8.510;2022-08-21T05:57:32;15.30;99.90
26278;DHT22;14000;52.056;8.510;2022-08-21T05:59:57;15.30;99.90
26278;DHT22;14000;52.056;8.510;2022-08-21T06:02:23;15.40;99.90
26278;DHT22;14000;52.056;8.510;2022-08-21T06:04:49;15.50;99.90
26278;DHT22;14000;52.056;8.510;2022-08-21T06:07:15;15.60;99.90
26278;DHT22;14000;52.056;8.510;2022-08-21T06:09:41;15.70;99.90
26278;DHT22;14000;52.056;8.510;2022-08-21T06:12:10;15.70;99.90
26278;DHT22;14000;52.056;8.510;2022-08-21T06:14:38;15.90;99.90
26278;DHT22;14000;52.056;8.510;2022-08-21T06:17:06;15.90;99.90
26278;DHT22;14000;52.056;8.510;2022-08-21T06:19:32;16.00;99.90
26278;DHT22;14000;52.056;8.510;2022-08-21T06:21:58;16.10;99.90
26278;DHT22;14000;52.056;8.510;2022-08-21T06:24:23;16.20;99.90
26278;DHT22;14000;52.056;8.510;2022-08-21T06:26:49;16.30;99.90
26278;DHT22;14000;52.056;8.510;2022-08-21T06:29:15;16.40;99.90
26278;DHT22;14000;52.056;8.510;2022-08-21T06:31:46;16.50;99.90
26278;DHT22;14000;52.056;8.510;2022-08-21T06:34:12;16.60;99.90
26278;DHT22;14000;52.056;8.510;2022-08-21T06:36:38;16.70;99.90
26278;DHT22;14000;52.056;8.510;2022-08-21T06:39:04;16.80;99.90
26278;DHT22;14000;52.056;8.510;2022-08-21T06:41:30;16.90;99.90
26278;DHT22;14000;52.056;8.510;2022-08-21T06:43:57;17.00;99.90
26278;DHT22;14000;52.056;8.510;2022-08-21T06:46:25;17.10;99.90
26278;DHT22;14000;52.056;8.510;2022-08-21T06:48:51;17.20;99.90
26278;DHT22;14000;52.056;8.510;2022-08-21T06:51:16;17.30;99.90
26278;DHT22;14000;52.056;8.510;2022-08-21T06:53:43;17.40;99.90
26278;DHT22;14000;52.056;8.510;2022-08-21T06:56:09;17.50;99.90
26278;DHT22;14000;52.056;8.510;2022-08-21T06:58:35;17.60;99.90
26278;DHT22;14000;52.056;8.510;2022-08-21T07:01:00;17.80;99.90
26278;DHT22;14000;52.056;8.510;2022-08-21T07:03:29;17.90;99.90
26278;DHT22;14000;52.056;8.510;2022-08-21T07:05:55;18.00;99.90
26278;DHT22;14000;52.056;8.510;2022-08-21T07:08:24;18.10;99.90
26278;DHT22;14000;52.056;8.510;2022-08-21T07:10:51;18.20;99.90
26278;DHT22;14000;52.056;8.510;2022-08-21T07:13:18;18.30;99.90
26278;DHT22;14000;52.056;8.510;2022-08-21T07:15:44;18.40;99.90
26278;DHT22;14000;52.056;8.510;2022-08-21T07:18:10;18.50;99.90
26278;DHT22;14000;52.056;8.510;2022-08-21T07:20:37;18.50;99.90
26278;DHT22;14000;52.056;8.510;2022-08-21T07:23:08;18.50;99.90
26278;DHT22;14000;52.056;8.510;2022-08-21T07:25:36;18.60;99.90
26278;DHT22;14000;52.056;8.510;2022-08-21T07:28:01;18.60;99.90
26278;DHT22;14000;52.056;8.510;2022-08-21T07:30:28;18.70;99.90
26278;DHT22;14000;52.056;8.510;2022-08-21T07:32:54;18.90;99.90
26278;DHT22;14000;52.056;8.510;2022-08-21T07:35:20;19.00;99.90
26278;DHT22;14000;52.056;8.510;2022-08-21T07:37:46;19.10;99.90
26278;DHT22;14000;52.056;8.510;2022-08-21T07:40:13;19.20;99.90
26278;DHT22;14000;52.056;8.510;2022-08-21T07:42:43;19.20;99.90
26278;DHT22;14000;52.056;8.510;2022-08-21T07:45:10;19.30;99.90
26278;DHT22;14000;52.056;8.510;2022-08-21T07:47:36;19.30;99.90
26278;DHT22;14000;52.056;8.510;2022-08-21T07:50:02;19.40;99.90
26278;DHT22;14000;52.056;8.510;2022-08-21T07:52:28;19.50;99.90
26278;DHT22;14000;52.056;8.510;2022-08-21T07:54:54;19.60;99.90
26278;DHT22;14000;52.056;8.510;2022-08-21T07:57:20;19.70;99.90
26278;DHT22;14000;52.056;8.510;2022-08-21T07:59:45;19.70;99.90
26278;DHT22;14000;52.056;8.510;2022-08-21T08:02:24;19.70;99.90
26278;DHT22;14000;52.056;8.510;2022-08-21T08:04:50;19.70;99.90
26278;DHT22;14000;52.056;8.510;2022-08-21T08:07:16;19.70;99.90
26278;DHT22;14000;52.056;8.510;2022-08-21T08:09:42;19.70;99.90
26278;DHT22;14000;52.056;8.510;2022-08-21T08:12:08;19.80;99.90
26278;DHT22;14000;52.056;8.510;2022-08-21T08:14:35;19.90;99.90
26278;DHT22;14000;52.056;8.510;2022-08-21T08:17:00;19.90;99.90
26278;DHT22;14000;52.056;8.510;2022-08-21T08:19:28;20.10;99.90
26278;DHT22;14000;52.056;8.510;2022-08-21T08:21:53;20.20;99.90
26278;DHT22;14000;52.056;8.510;2022-08-21T08:24:19;20.20;99.90
26278;DHT22;14000;52.056;8.510;2022-08-21T08:26:46;20.20;99.90
26278;DHT22;14000;52.056;8.510;2022-08-21T08:29:12;20.20;99.90
26278;DHT22;14000;52.056;8.510;2022-08-21T08:31:37;20.30;99.90
26278;DHT22;14000;52.056;8.510;2022-08-21T08:34:03;20.40;99.90
26278;DHT22;14000;52.056;8.510;2022-08-21T08:36:52;20.50;99.90
26278;DHT22;14000;52.056;8.510;2022-08-21T08:39:18;20.60;99.90
26278;DHT22;14000;52.056;8.510;2022-08-21T08:41:45;20.60;99.90
26278;DHT22;14000;52.056;8.510;2022-08-21T08:44:12;20.60;99.90
26278;DHT22;14000;52.056;8.510;2022-08-21T08:46:41;20.70;99.90
26278;DHT22;14000;52.056;8.510;2022-08-21T08:52:31;20.70;99.90
26278;DHT22;14000;52.056;8.510;2022-08-21T08:55:25;20.80;99.90
26278;DHT22;14000;52.056;8.510;2022-08-21T08:57:53;20.90;99.90
26278;DHT22;14000;52.056;8.510;2022-08-21T09:00:22;20.90;99.90
26278;DHT22;14000;52.056;8.510;2022-08-21T09:02:52;20.90;99.90
26278;DHT22;14000;52.056;8.510;2022-08-21T09:05:25;20.90;99.90
26278;DHT22;14000;52.056;8.510;2022-08-21T09:15:38;21.20;99.90
26278;DHT22;14000;52.056;8.510;2022-08-21T09:28:40;21.40;99.90
26278;DHT22;14000;52.056;8.510;2022-08-21T09:31:10;21.60;99.90
26278;DHT22;14000;52.056;8.510;2022-08-21T09:33:37;21.50;99.90
26278;DHT22;14000;52.056;8.510;2022-08-21T09:36:03;21.60;99.90
26278;DHT22;14000;52.056;8.510;2022-08-21T09:38:35;21.50;99.90
26278;DHT22;14000;52.056;8.510;2022-08-21T09:41:08;21.60;99.90
26278;DHT22;14000;52.056;8.510;2022-08-21T09:43:36;21.60;99.90
26278;DHT22;14000;52.056;8.510;2022-08-21T09:46:20;21.70;99.90
26278;DHT22;14000;52.056;8.510;2022-08-21T09:48:49;21.80;99.90
26278;DHT22;14000;52.056;8.510;2022-08-21T09:51:21;21.80;99.90
26278;DHT22;14000;52.056;8.510;2022-08-21T09:56:37;22.10;99.90
26278;DHT22;14000;52.056;8.510;2022-08-21T09:59:28;22.10;99.90
26278;DHT22;14000;52.056;8.510;2022-08-21T10:01:57;22.20;99.90
26278;DHT22;14000;52.056;8.510;2022-08-21T10:04:32;22.20;99.90
26278;DHT22;14000;52.056;8.510;2022-08-21T10:07:10;22.30;99.90
26278;DHT22;14000;52.056;8.510;2022-08-21T10:09:36;22.40;99.90
26278;DHT22;14000;52.056;8.510;2022-08-21T10:12:21;22.50;99.90
26278;DHT22;14000;52.056;8.510;2022-08-21T10:15:28;22.60;99.90
26278;DHT22;14000;52.056;8.510;2022-08-21T10:18:04;22.50;99.90
26278;DHT22;14000;52.056;8.510;2022-08-21T10:20:45;22.30;99.90
26278;DHT22;14000;52.056;8.510;2022-08-21T10:23:28;22.20;99.90
26278;DHT22;14000;52.056;8.510;2022-08-21T10:32:00;22.50;99.90
26278;DHT22;14000;52.056;8.510;2022-08-21T10:40:33;22.90;99.90
26278;DHT22;14000;52.056;8.510;2022-08-21T10:49:09;23.10;99.90
26278;DHT22;14000;52.056;8.510;2022-08-21T10:52:45;23.20;99.90
26278;DHT22;14000;52.056;8.510;2022-08-21T10:55:06;23.20;99.90
26278;DHT22;14000;52.056;8.510;2022-08-21T11:00:16;23.00;99.90
26278;DHT22;14000;52.056;8.510;2022-08-21T11:02:57;23.10;99.90
26278;DHT22;14000;52.056;8.510;2022-08-21T11:05:33;23.10;99.90
26278;DHT22;14000;52.056;8.510;2022-08-21T11:08:08;23.20;99.90
26278;DHT22;14000;52.056;8.510;2022-08-21T11:10:55;23.30;99.90
26278;DHT22;14000;52.056;8.510;2022-08-21T11:13:46;23.50;99.90
26278;DHT22;14000;52.056;8.510;2022-08-21T11:19:00;24.10;99.90
26278;DHT22;14000;52.056;8.510;2022-08-21T11:21:52;24.60;99.90
26278;DHT22;14000;52.056;8.510;2022-08-21T11:24:32;25.80;99.90
26278;DHT22;14000;52.056;8.510;2022-08-21T11:29:38;28.60;99.90
26278;DHT22;14000;52.056;8.510;2022-08-21T11:32:34;29.40;99.90
26278;DHT22;14000;52.056;8.510;2022-08-21T11:41:02;31.20;99.90
26278;DHT22;14000;52.056;8.510;2022-08-21T11:43:53;32.00;99.90
26278;DHT22;14000;52.056;8.510;2022-08-21T11:48:59;31.90;99.90
26278;DHT22;14000;52.056;8.510;2022-08-21T11:57:21;31.00;99.90
26278;DHT22;14000;52.056;8.510;2022-08-21T12:02:42;31.10;99.90
26278;DHT22;14000;52.056;8.510;2022-08-21T12:05:21;31.30;99.90
26278;DHT22;14000;52.056;8.510;2022-08-21T12:07:48;31.30;99.90
26278;DHT22;14000;52.056;8.510;2022-08-21T12:10:18;31.20;99.90
26278;DHT22;14000;52.056;8.510;2022-08-21T12:12:46;30.90;99.90
26278;DHT22;14000;52.056;8.510;2022-08-21T12:18:19;30.60;99.90
26278;DHT22;14000;52.056;8.510;2022-08-21T12:20:58;31.00;99.90
26278;DHT22;14000;52.056;8.510;2022-08-21T12:23:33;30.40;99.90
26278;DHT22;14000;52.056;8.510;2022-08-21T12:26:20;30.10;99.90
26278;DHT22;14000;52.056;8.510;2022-08-21T12:28:47;29.30;99.90
26278;DHT22;14000;52.056;8.510;2022-08-21T12:31:27;28.50;99.90
26278;DHT22;14000;52.056;8.510;2022-08-21T12:34:01;28.10;99.90
26278;DHT22;14000;52.056;8.510;2022-08-21T12:36:44;28.10;99.90
26278;DHT22;14000;52.056;8.510;2022-08-21T12:39:23;28.10;99.90
26278;DHT22;14000;52.056;8.510;2022-08-21T12:42:04;28.30;99.90
26278;DHT22;14000;52.056;8.510;2022-08-21T12:44:48;28.40;99.90
26278;DHT22;14000;52.056;8.510;2022-08-21T12:47:29;28.10;99.90
26278;DHT22;14000;52.056;8.510;2022-08-21T12:50:09;27.90;99.90
26278;DHT22;14000;52.056;8.510;2022-08-21T12:52:41;27.80;99.90
26278;DHT22;14000;52.056;8.510;2022-08-21T12:55:15;27.80;99.90
26278;DHT22;14000;52.056;8.510;2022-08-21T12:57:42;27.60;99.90
26278;DHT22;14000;52.056;8.510;2022-08-21T13:00:12;27.90;99.90
26278;DHT22;14000;52.056;8.510;2022-08-21T13:02:43;27.70;99.90
26278;DHT22;14000;52.056;8.510;2022-08-21T13:05:14;27.60;99.90
26278;DHT22;14000;52.056;8.510;2022-08-21T13:07:44;27.60;99.90
26278;DHT22;14000;52.056;8.510;2022-08-21T13:10:25;27.70;99.90
26278;DHT22;14000;52.056;8.510;2022-08-21T13:13:00;27.50;99.90
26278;DHT22;14000;52.056;8.510;2022-08-21T13:15:31;27.10;99.90
26278;DHT22;14000;52.056;8.510;2022-08-21T13:17:58;27.20;99.90
26278;DHT22;14000;52.056;8.510;2022-08-21T13:20:35;27.10;99.90
26278;DHT22;14000;52.056;8.510;2022-08-21T13:23:03;27.50;99.90
26278;DHT22;14000;52.056;8.510;2022-08-21T13:25:35;27.40;99.90
26278;DHT22;14000;52.056;8.510;2022-08-21T13:28:07;27.00;99.90
26278;DHT22;14000;52.056;8.510;2022-08-21T13:30:40;26.90;99.90
26278;DHT22;14000;52.056;8.510;2022-08-21T13:33:07;27.10;99.90
26278;DHT22;14000;52.056;8.510;2022-08-21T13:35:50;27.20;99.90
26278;DHT22;14000;52.056;8.510;2022-08-21T13:38:20;27.50;99.90
26278;DHT22;14000;52.056;8.510;2022-08-21T13:40:54;27.60;99.90
26278;DHT22;14000;52.056;8.510;2022-08-21T13:43:26;27.90;99.90
26278;DHT22;14000;52.056;8.510;2022-08-21T13:45:55;28.10;99.90
26278;DHT22;14000;52.056;8.510;2022-08-21T13:48:23;28.30;99.90
26278;DHT22;14000;52.056;8.510;2022-08-21T13:50:50;28.30;99.90
26278;DHT22;14000;52.056;8.510;2022-08-21T13:53:30;28.40;99.90
26278;DHT22;14000;52.056;8.510;2022-08-21T13:55:57;28.40;99.90
26278;DHT22;14000;52.056;8.510;2022-08-21T13:58:29;28.60;99.90
26278;DHT22;14000;52.056;8.510;2022-08-21T14:00:55;28.70;99.90
26278;DHT22;14000;52.056;8.510;2022-08-21T14:03:38;28.60;99.90
26278;DHT22;14000;52.056;8.510;2022-08-21T14:06:33;28.50;99.90
26278;DHT22;14000;52.056;8.510;2022-08-21T14:09:03;28.60;99.90
26278;DHT22;14000;52.056;8.510;2022-08-21T14:11:34;28.60;99.90
26278;DHT22;14000;52.056;8.510;2022-08-21T14:14:50;28.70;99.90
26278;DHT22;14000;52.056;8.510;2022-08-21T14:17:03;28.60;99.90
26278;DHT22;14000;52.056;8.510;2022-08-21T14:19:39;28.50;99.90
26278;DHT22;14000;52.056;8.510;2022-08-21T14:22:44;28.50;99.90
26278;DHT22;14000;52.056;8.510;2022-08-21T14:25:27;28.50;99.90
26278;DHT22;14000;52.056;8.510;2022-08-21T14:30:33;28.20;99.90
26278;DHT22;14000;52.056;8.510;2022-08-21T14:33:01;27.90;99.90
26278;DHT22;14000;52.056;8.510;2022-08-21T14:35:27;27.50;99.90
26278;DHT22;14000;52.056;8.510;2022-08-21T14:37:53;27.30;99.90
26278;DHT22;14000;52.056;8.510;2022-08-21T14:40:22;27.10;99.90
26278;DHT22;14000;52.056;8.510;2022-08-21T14:42:48;27.00;99.90
26278;DHT22;14000;52.056;8.510;2022-08-21T14:45:23;26.90;99.90
26278;DHT22;14000;52.056;8.510;2022-08-21T14:47:51;26.80;99.90
26278;DHT22;14000;52.056;8.510;2022-08-21T14:50:17;26.80;99.90
26278;DHT22;14000;52.056;8.510;2022-08-21T14:52:43;26.70;99.90
26278;DHT22;14000;52.056;8.510;2022-08-21T14:55:11;26.50;99.90
26278;DHT22;14000;52.056;8.510;2022-08-21T14:57:40;26.40;99.90
26278;DHT22;14000;52.056;8.510;2022-08-21T15:00:09;26.20;99.90
26278;DHT22;14000;52.056;8.510;2022-08-21T15:02:35;26.10;99.90
26278;DHT22;14000;52.056;8.510;2022-08-21T15:05:01;26.00;99.90
26278;DHT22;14000;52.056;8.510;2022-08-21T15:07:27;25.70;99.90
26278;DHT22;14000;52.056;8.510;2022-08-21T15:09:53;25.60;99.90
26278;DHT22;14000;52.056;8.510;2022-08-21T15:12:18;25.60;99.90
26278;DHT22;14000;52.056;8.510;2022-08-21T15:14:44;25.60;99.90
26278;DHT22;14000;52.056;8.510;2022-08-21T15:17:10;25.60;99.90
26278;DHT22;14000;52.056;8.510;2022-08-21T15:19:36;25.60;99.90
26278;DHT22;14000;52.056;8.510;2022-08-21T15:22:02;25.40;99.90
26278;DHT22;14000;52.056;8.510;2022-08-21T15:24:28;25.40;99.90
26278;DHT22;14000;52.056;8.510;2022-08-21T15:26:55;25.50;99.90
26278;DHT22;14000;52.056;8.510;2022-08-21T15:29:22;25.40;99.90
26278;DHT22;14000;52.056;8.510;2022-08-21T15:31:54;25.40;99.90
26278;DHT22;14000;52.056;8.510;2022-08-21T15:34:20;25.30;99.90
26278;DHT22;14000;52.056;8.510;2022-08-21T15:36:46;25.30;99.90
26278;DHT22;14000;52.056;8.510;2022-08-21T15:39:11;25.20;99.90
26278;DHT22;14000;52.056;8.510;2022-08-21T15:41:37;25.30;99.90
26278;DHT22;14000;52.056;8.510;2022-08-21T15:44:03;25.20;99.90
26278;DHT22;14000;52.056;8.510;2022-08-21T15:46:28;25.20;99.90
26278;DHT22;14000;52.056;8.510;2022-08-21T15:48:54;25.20;99.90
26278;DHT22;14000;52.056;8.510;2022-08-21T15:51:20;25.20;99.90
26278;DHT22;14000;52.056;8.510;2022-08-21T15:53:45;25.30;99.90
26278;DHT22;14000;52.056;8.510;2022-08-21T15:56:21;25.40;99.90
26278;DHT22;14000;52.056;8.510;2022-08-21T15:58:52;25.40;99.90
26278;DHT22;14000;52.056;8.510;2022-08-21T16:01:20;25.40;99.90
26278;DHT22;14000;52.056;8.510;2022-08-21T16:03:48;25.50;99.90
26278;DHT22;14000;52.056;8.510;2022-08-21T16:06:14;25.40;99.90
26278;DHT22;14000;52.056;8.510;2022-08-21T16:08:40;25.40;99.90
26278;DHT22;14000;52.056;8.510;2022-08-21T16:11:05;25.30;99.90
26278;DHT22;14000;52.056;8.510;2022-08-21T16:13:41;25.20;99.90
26278;DHT22;14000;52.056;8.510;2022-08-21T16:16:11;25.10;99.90
26278;DHT22;14000;52.056;8.510;2022-08-21T16:18:38;25.10;99.90
26278;DHT22;14000;52.056;8.510;2022-08-21T16:21:05;25.10;99.90
26278;DHT22;14000;52.056;8.510;2022-08-21T16:23:32;25.00;99.90
26278;DHT22;14000;52.056;8.510;2022-08-21T16:26:00;24.90;99.90
26278;DHT22;14000;52.056;8.510;2022-08-21T16:28:27;24.80;99.90
26278;DHT22;14000;52.056;8.510;2022-08-21T16:30:54;24.60;99.90
26278;DHT22;14000;52.056;8.510;2022-08-21T16:33:43;24.60;99.90
26278;DHT22;14000;52.056;8.510;2022-08-21T16:36:11;24.60;99.90
26278;DHT22;14000;52.056;8.510;2022-08-21T16:38:37;24.50;99.90
26278;DHT22;14000;52.056;8.510;2022-08-21T16:41:09;24.40;99.90
26278;DHT22;14000;52.056;8.510;2022-08-21T16:43:35;24.60;99.90
26278;DHT22;14000;52.056;8.510;2022-08-21T16:46:03;24.60;99.90
26278;DHT22;14000;52.056;8.510;2022-08-21T16:48:28;24.60;99.90
26278;DHT22;14000;52.056;8.510;2022-08-21T16:50:55;24.60;99.90
26278;DHT22;14000;52.056;8.510;2022-08-21T16:53:21;24.60;99.90
26278;DHT22;14000;52.056;8.510;2022-08-21T16:55:49;24.40;99.90
26278;DHT22;14000;52.056;8.510;2022-08-21T16:58:20;24.40;99.90
26278;DHT22;14000;52.056;8.510;2022-08-21T17:00:47;24.40;99.90
26278;DHT22;14000;52.056;8.510;2022-08-21T17:03:15;24.40;99.90
26278;DHT22;14000;52.056;8.510;2022-08-21T17:05:42;24.40;99.90